sensor_id;sensor_type;location;lat;lon;timestamp;temperature;humidity
2050;DHT22;8478;49.208;8.806;2022-12-29T00:02:13;10.80;99.90
2050;DHT22;8478;49.208;8.806;2022-12-29T00:04:39;10.90;99.90
2050;DHT22;8478;49.208;8.806;2022-12-29T00:07:06;10.90;99.90
2050;DHT22;8478;49.208;8.806;2022-12-29T00:09:32;10.80;99.90
2050;DHT22;8478;49.208;8.806;2022-12-29T00:11:59;10.90;99.90
2050;DHT22;8478;49.208;8.806;2022-12-29T00:14:26;10.90;99.90
2050;DHT22;8478;49.208;8.806;2022-12-29T00:17:11;10.90;99.90
2050;DHT22;8478;49.208;8.806;2022-12-29T00:19:37;10.80;99.90
2050;DHT22;8478;49.208;8.806;2022-12-29T00:22:21;10.90;99.90
2050;DHT22;8478;49.208;8.806;2022-12-29T00:25:09;10.90;99.90
2050;DHT22;8478;49.208;8.806;2022-12-29T00:27:53;10.90;99.90
2050;DHT22;8478;49.208;8.806;2022-12-29T00:30:37;10.90;99.90
2050;DHT22;8478;49.208;8.806;2022-12-29T00:33:22;10.90;99.90
2050;DHT22;8478;49.208;8.806;2022-12-29T00:36:34;10.90;99.90
2050;DHT22;8478;49.208;8.806;2022-12-29T00:39:09;10.90;99.90
2050;DHT22;8478;49.208;8.806;2022-12-29T00:41:54;10.90;99.90
2050;DHT22;8478;49.208;8.806;2022-12-29T00:44:38;10.80;99.90
2050;DHT22;8478;49.208;8.806;2022-12-29T00:47:04;10.90;99.90
2050;DHT22;8478;49.208;8.806;2022-12-29T00:49:30;11.00;99.90
2050;DHT22;8478;49.208;8.806;2022-12-29T00:52:07;10.90;99.90
2050;DHT22;8478;49.208;8.806;2022-12-29T00:54:36;11.00;99.90
2050;DHT22;8478;49.208;8.806;2022-12-29T00:57:03;10.90;99.90
2050;DHT22;8478;49.208;8.806;2022-12-29T00:59:29;11.00;99.90
2050;DHT22;8478;49.208;8.806;2022-12-29T01:01:55;10.90;99.90
2050;DHT22;8478;49.208;8.806;2022-12-29T01:04:23;10.90;99.90
2050;DHT22;8478;49.208;8.806;2022-12-29T01:06:49;10.90;99.90
2050;DHT22;8478;49.208;8.806;2022-12-29T01:09:16;10.90;99.90
2050;DHT22;8478;49.208;8.806;2022-12-29T01:12:01;10.90;99.90
2050;DHT22;8478;49.208;8.806;2022-12-29T01:14:27;11.00;99.90
2050;DHT22;8478;49.208;8.806;2022-12-29T01:16:54;10.90;99.90
2050;DHT22;8478;49.208;8.806;2022-12-29T01:19:20;11.00;99.90
2050;DHT22;8478;49.208;8.806;2022-12-29T01:21:47;10.90;99.90
2050;DHT22;8478;49.208;8.806;2022-12-29T01:24:14;10.90;99.90
2050;DHT22;8478;49.208;8.806;2022-12-29T01:26:40;10.90;99.90
2050;DHT22;8478;49.208;8.806;2022-12-29T01:29:06;10.90;99.90
2050;DHT22;8478;49.208;8.806;2022-12-29T01:31:31;10.90;99.90
2050;DHT22;8478;49.208;8.806;2022-12-29T01:33:57;10.90;99.90
2050;DHT22;8478;49.208;8.806;2022-12-29T01:36:24;10.90;99.90
2050;DHT22;8478;49.208;8.806;2022-12-29T01:38:50;11.00;99.90
2050;DHT22;8478;49.208;8.806;2022-12-29T01:41:16;11.00;99.90
2050;DHT22;8478;49.208;8.806;2022-12-29T01:48:49;11.00;99.90
2050;DHT22;8478;49.208;8.806;2022-12-29T01:51:16;11.00;99.90
2050;DHT22;8478;49.208;8.806;2022-12-29T01:53:42;11.00;99.90
2050;DHT22;8478;49.208;8.806;2022-12-29T01:56:11;11.00;99.90
2050;DHT22;8478;49.208;8.806;2022-12-29T01:58:41;11.00;99.90
2050;DHT22;8478;49.208;8.806;2022-12-29T02:01:09;11.00;99.90
2050;DHT22;8478;49.208;8.806;2022-12-29T02:03:35;11.00;99.90
2050;DHT22;8478;49.208;8.806;2022-12-29T02:06:02;10.90;99.90
2050;DHT22;8478;49.208;8.806;2022-12-29T02:08:30;11.00;99.90
2050;DHT22;8478;49.208;8.806;2022-12-29T02:10:56;11.00;99.90
2050;DHT22;8478;49.208;8.806;2022-12-29T02:13:27;11.00;99.90
2050;DHT22;8478;49.208;8.806;2022-12-29T02:25:29;11.00;99.90
2050;DHT22;8478;49.208;8.806;2022-12-29T02:28:08;11.00;99.90
2050;DHT22;8478;49.208;8.806;2022-12-29T02:39:10;11.00;99.90
2050;DHT22;8478;49.208;8.806;2022-12-29T02:50:13;11.00;99.90
2050;DHT22;8478;49.208;8.806;2022-12-29T02:52:52;11.00;99.90
2050;DHT22;8478;49.208;8.806;2022-12-29T02:55:20;11.00;99.90
2050;DHT22;8478;49.208;8.806;2022-12-29T02:57:45;11.10;99.90
2050;DHT22;8478;49.208;8.806;2022-12-29T03:00:14;11.10;99.90
2050;DHT22;8478;49.208;8.806;2022-12-29T03:07:50;11.00;99.90
2050;DHT22;8478;49.208;8.806;2022-12-29T03:13:16;11.10;99.90
2050;DHT22;8478;49.208;8.806;2022-12-29T03:16:23;11.10;99.90
2050;DHT22;8478;49.208;8.806;2022-12-29T03:19:21;11.10;99.90
2050;DHT22;8478;49.208;8.806;2022-12-29T03:21:54;11.00;99.90
2050;DHT22;8478;49.208;8.806;2022-12-29T03:24:43;11.10;99.90
2050;DHT22;8478;49.208;8.806;2022-12-29T03:27:12;11.10;99.90
2050;DHT22;8478;49.208;8.806;2022-12-29T03:29:47;11.10;99.90
2050;DHT22;8478;49.208;8.806;2022-12-29T03:32:20;11.10;99.90
2050;DHT22;8478;49.208;8.806;2022-12-29T03:34:48;11.10;99.90
2050;DHT22;8478;49.208;8.806;2022-12-29T03:37:17;11.10;99.90
2050;DHT22;8478;49.208;8.806;2022-12-29T03:39:44;11.10;99.90
2050;DHT22;8478;49.208;8.806;2022-12-29T03:42:17;11.10;99.90
2050;DHT22;8478;49.208;8.806;2022-12-29T03:44:44;11.10;99.90
2050;DHT22;8478;49.208;8.806;2022-12-29T03:47:12;11.10;99.90
2050;DHT22;8478;49.208;8.806;2022-12-29T03:49:39;11.10;99.90
2050;DHT22;8478;49.208;8.806;2022-12-29T03:52:05;11.10;99.90
2050;DHT22;8478;49.208;8.806;2022-12-29T03:54:31;11.10;99.90
2050;DHT22;8478;49.208;8.806;2022-12-29T03:56:57;11.10;99.90
2050;DHT22;8478;49.208;8.806;2022-12-29T03:59:23;11.10;99.90
2050;DHT22;8478;49.208;8.806;2022-12-29T04:01:48;11.10;99.90
2050;DHT22;8478;49.208;8.806;2022-12-29T04:04:14;11.10;99.90
2050;DHT22;8478;49.208;8.806;2022-12-29T04:06:40;11.10;99.90
2050;DHT22;8478;49.208;8.806;2022-12-29T04:09:06;11.10;99.90
2050;DHT22;8478;49.208;8.806;2022-12-29T04:11:32;11.10;99.90
2050;DHT22;8478;49.208;8.806;2022-12-29T04:13:57;11.10;99.90
2050;DHT22;8478;49.208;8.806;2022-12-29T04:16:23;11.20;99.90
2050;DHT22;8478;49.208;8.806;2022-12-29T04:18:49;11.10;99.90
2050;DHT22;8478;49.208;8.806;2022-12-29T04:21:14;11.10;99.90
2050;DHT22;8478;49.208;8.806;2022-12-29T04:23:40;11.10;99.90
2050;DHT22;8478;49.208;8.806;2022-12-29T04:26:07;11.10;99.90
2050;DHT22;8478;49.208;8.806;2022-12-29T04:28:34;11.20;99.90
2050;DHT22;8478;49.208;8.806;2022-12-29T04:31:00;11.10;99.90
2050;DHT22;8478;49.208;8.806;2022-12-29T04:33:26;11.20;99.90
2050;DHT22;8478;49.208;8.806;2022-12-29T04:35:52;11.20;99.90
2050;DHT22;8478;49.208;8.806;2022-12-29T04:38:19;11.10;99.90
2050;DHT22;8478;49.208;8.806;2022-12-29T04:40:46;11.20;99.90
2050;DHT22;8478;49.208;8.806;2022-12-29T04:43:12;11.10;99.90
2050;DHT22;8478;49.208;8.806;2022-12-29T04:45:48;11.20;99.90
2050;DHT22;8478;49.208;8.806;2022-12-29T04:48:14;11.10;99.90
2050;DHT22;8478;49.208;8.806;2022-12-29T04:50:40;11.20;99.90
2050;DHT22;8478;49.208;8.806;2022-12-29T04:53:06;11.10;99.90
2050;DHT22;8478;49.208;8.806;2022-12-29T04:55:32;11.20;99.90
2050;DHT22;8478;49.208;8.806;2022-12-29T04:57:58;11.20;99.90
2050;DHT22;8478;49.208;8.806;2022-12-29T05:00:24;11.20;99.90
2050;DHT22;8478;49.208;8.806;2022-12-29T05:02:50;11.20;99.90
2050;DHT22;8478;49.208;8.806;2022-12-29T05:05:15;11.20;99.90
2050;DHT22;8478;49.208;8.806;2022-12-29T05:07:42;11.20;99.90
2050;DHT22;8478;49.208;8.806;2022-12-29T05:10:08;11.20;99.90
2050;DHT22;8478;49.208;8.806;2022-12-29T05:12:35;11.20;99.90
2050;DHT22;8478;49.208;8.806;2022-12-29T05:15:02;11.20;99.90
2050;DHT22;8478;49.208;8.806;2022-12-29T05:17:30;11.20;99.90
2050;DHT22;8478;49.208;8.806;2022-12-29T05:19:56;11.20;99.90
2050;DHT22;8478;49.208;8.806;2022-12-29T05:22:22;11.20;99.90
2050;DHT22;8478;49.208;8.806;2022-12-29T05:24:48;11.20;99.90
2050;DHT22;8478;49.208;8.806;2022-12-29T05:27:13;11.20;99.90
2050;DHT22;8478;49.208;8.806;2022-12-29T05:29:39;11.20;99.90
2050;DHT22;8478;49.208;8.806;2022-12-29T05:32:05;11.20;99.90
2050;DHT22;8478;49.208;8.806;2022-12-29T05:34:31;11.20;99.90
2050;DHT22;8478;49.208;8.806;2022-12-29T05:36:57;11.20;99.90
2050;DHT22;8478;49.208;8.806;2022-12-29T05:39:22;11.20;99.90
2050;DHT22;8478;49.208;8.806;2022-12-29T05:41:48;11.20;99.90
2050;DHT22;8478;49.208;8.806;2022-12-29T05:44:14;11.20;99.90
2050;DHT22;8478;49.208;8.806;2022-12-29T05:46:40;11.30;99.90
2050;DHT22;8478;49.208;8.806;2022-12-29T05:49:06;11.30;99.90
2050;DHT22;8478;49.208;8.806;2022-12-29T05:51:31;11.20;99.90
2050;DHT22;8478;49.208;8.806;2022-12-29T05:53:57;11.20;99.90
2050;DHT22;8478;49.208;8.806;2022-12-29T05:56:23;11.30;99.90
2050;DHT22;8478;49.208;8.806;2022-12-29T05:58:48;11.30;99.90
2050;DHT22;8478;49.208;8.806;2022-12-29T06:01:14;11.30;99.90
2050;DHT22;8478;49.208;8.806;2022-12-29T06:03:40;11.20;99.90
2050;DHT22;8478;49.208;8.806;2022-12-29T06:06:06;11.30;99.90
2050;DHT22;8478;49.208;8.806;2022-12-29T06:08:32;11.30;99.90
2050;DHT22;8478;49.208;8.806;2022-12-29T06:10:58;11.30;99.90
2050;DHT22;8478;49.208;8.806;2022-12-29T06:13:24;11.20;99.90
2050;DHT22;8478;49.208;8.806;2022-12-29T06:15:50;11.20;99.90
2050;DHT22;8478;49.208;8.806;2022-12-29T06:18:16;11.30;99.90
2050;DHT22;8478;49.208;8.806;2022-12-29T06:20:41;11.30;99.90
2050;DHT22;8478;49.208;8.806;2022-12-29T06:23:07;11.30;99.90
2050;DHT22;8478;49.208;8.806;2022-12-29T06:25:33;11.30;99.90
2050;DHT22;8478;49.208;8.806;2022-12-29T06:28:01;11.30;99.90
2050;DHT22;8478;49.208;8.806;2022-12-29T06:30:27;11.30;99.90
2050;DHT22;8478;49.208;8.806;2022-12-29T06:32:53;11.30;99.90
2050;DHT22;8478;49.208;8.806;2022-12-29T06:35:20;11.20;99.90
2050;DHT22;8478;49.208;8.806;2022-12-29T06:37:46;11.30;99.90
2050;DHT22;8478;49.208;8.806;2022-12-29T06:40:12;11.30;99.90
2050;DHT22;8478;49.208;8.806;2022-12-29T06:42:38;11.30;99.90
2050;DHT22;8478;49.208;8.806;2022-12-29T06:45:04;11.30;99.90
2050;DHT22;8478;49.208;8.806;2022-12-29T06:47:30;11.30;99.90
2050;DHT22;8478;49.208;8.806;2022-12-29T06:49:55;11.40;99.90
2050;DHT22;8478;49.208;8.806;2022-12-29T06:52:21;11.30;99.90
2050;DHT22;8478;49.208;8.806;2022-12-29T06:54:49;11.30;99.90
2050;DHT22;8478;49.208;8.806;2022-12-29T06:57:15;11.30;99.90
2050;DHT22;8478;49.208;8.806;2022-12-29T06:59:40;11.30;99.90
2050;DHT22;8478;49.208;8.806;2022-12-29T07:02:06;11.30;99.90
2050;DHT22;8478;49.208;8.806;2022-12-29T07:04:32;11.30;99.90
2050;DHT22;8478;49.208;8.806;2022-12-29T07:06:57;11.40;99.90
2050;DHT22;8478;49.208;8.806;2022-12-29T07:09:23;11.30;99.90
2050;DHT22;8478;49.208;8.806;2022-12-29T07:11:49;11.30;99.90
2050;DHT22;8478;49.208;8.806;2022-12-29T07:14:14;11.30;99.90
2050;DHT22;8478;49.208;8.806;2022-12-29T07:16:40;11.40;99.90
2050;DHT22;8478;49.208;8.806;2022-12-29T07:19:06;11.30;99.90
2050;DHT22;8478;49.208;8.806;2022-12-29T07:21:31;11.40;99.90
2050;DHT22;8478;49.208;8.806;2022-12-29T07:23:57;11.30;99.90
2050;DHT22;8478;49.208;8.806;2022-12-29T07:26:23;11.40;99.90
2050;DHT22;8478;49.208;8.806;2022-12-29T07:28:48;11.40;99.90
2050;DHT22;8478;49.208;8.806;2022-12-29T07:31:16;11.30;99.90
2050;DHT22;8478;49.208;8.806;2022-12-29T07:33:42;11.30;99.90
2050;DHT22;8478;49.208;8.806;2022-12-29T07:36:12;11.30;99.90
2050;DHT22;8478;49.208;8.806;2022-12-29T07:38:37;11.40;99.90
2050;DHT22;8478;49.208;8.806;2022-12-29T07:41:03;11.40;99.90
2050;DHT22;8478;49.208;8.806;2022-12-29T07:43:29;11.30;99.90
2050;DHT22;8478;49.208;8.806;2022-12-29T07:45:55;11.40;99.90
2050;DHT22;8478;49.208;8.806;2022-12-29T07:48:21;11.40;99.90
2050;DHT22;8478;49.208;8.806;2022-12-29T07:50:47;11.40;99.90
2050;DHT22;8478;49.208;8.806;2022-12-29T07:53:12;11.40;99.90
2050;DHT22;8478;49.208;8.806;2022-12-29T07:55:38;11.40;99.90
2050;DHT22;8478;49.208;8.806;2022-12-29T07:58:04;11.40;99.90
2050;DHT22;8478;49.208;8.806;2022-12-29T08:00:29;11.40;99.90
2050;DHT22;8478;49.208;8.806;2022-12-29T08:02:55;11.40;99.90
2050;DHT22;8478;49.208;8.806;2022-12-29T08:05:21;11.40;99.90
2050;DHT22;8478;49.208;8.806;2022-12-29T08:07:47;11.40;99.90
2050;DHT22;8478;49.208;8.806;2022-12-29T08:10:14;11.40;99.90
2050;DHT22;8478;49.208;8.806;2022-12-29T08:12:40;11.40;99.90
2050;DHT22;8478;49.208;8.806;2022-12-29T08:15:07;11.50;99.90
2050;DHT22;8478;49.208;8.806;2022-12-29T08:17:33;11.40;99.90
2050;DHT22;8478;49.208;8.806;2022-12-29T08:19:59;11.40;99.90
2050;DHT22;8478;49.208;8.806;2022-12-29T08:22:25;11.40;99.90
2050;DHT22;8478;49.208;8.806;2022-12-29T08:24:50;11.40;99.90
2050;DHT22;8478;49.208;8.806;2022-12-29T08:27:18;11.40;99.90
2050;DHT22;8478;49.208;8.806;2022-12-29T08:29:44;11.50;99.90
2050;DHT22;8478;49.208;8.806;2022-12-29T08:32:10;11.40;99.90
2050;DHT22;8478;49.208;8.806;2022-12-29T08:34:36;11.40;99.90
2050;DHT22;8478;49.208;8.806;2022-12-29T08:37:01;11.40;99.90
2050;DHT22;8478;49.208;8.806;2022-12-29T08:39:27;11.40;99.90
2050;DHT22;8478;49.208;8.806;2022-12-29T08:41:54;11.40;99.90
2050;DHT22;8478;49.208;8.806;2022-12-29T08:44:20;11.40;99.90
2050;DHT22;8478;49.208;8.806;2022-12-29T08:46:46;11.40;99.90
2050;DHT22;8478;49.208;8.806;2022-12-29T08:49:12;11.40;99.90
2050;DHT22;8478;49.208;8.806;2022-12-29T08:51:38;11.40;99.90
2050;DHT22;8478;49.208;8.806;2022-12-29T08:54:04;11.40;99.90
2050;DHT22;8478;49.208;8.806;2022-12-29T08:56:30;11.40;99.90
2050;DHT22;8478;49.208;8.806;2022-12-29T08:58:55;11.40;99.90
2050;DHT22;8478;49.208;8.806;2022-12-29T09:01:21;11.40;99.90
2050;DHT22;8478;49.208;8.806;2022-12-29T09:03:48;11.40;99.90
2050;DHT22;8478;49.208;8.806;2022-12-29T09:06:15;11.40;99.90
2050;DHT22;8478;49.208;8.806;2022-12-29T09:08:42;11.50;99.90
2050;DHT22;8478;49.208;8.806;2022-12-29T09:11:17;11.40;99.90
2050;DHT22;8478;49.208;8.806;2022-12-29T09:13:43;11.40;99.90
2050;DHT22;8478;49.208;8.806;2022-12-29T09:16:09;11.50;99.90
2050;DHT22;8478;49.208;8.806;2022-12-29T09:18:35;11.50;99.90
2050;DHT22;8478;49.208;8.806;2022-12-29T09:21:03;11.40;99.90
2050;DHT22;8478;49.208;8.806;2022-12-29T09:23:29;11.50;99.90
2050;DHT22;8478;49.208;8.806;2022-12-29T09:25:55;11.50;99.90
2050;DHT22;8478;49.208;8.806;2022-12-29T09:28:21;11.50;99.90
2050;DHT22;8478;49.208;8.806;2022-12-29T09:30:47;11.50;99.90
2050;DHT22;8478;49.208;8.806;2022-12-29T09:33:13;11.50;99.90
2050;DHT22;8478;49.208;8.806;2022-12-29T09:35:53;11.50;99.90
2050;DHT22;8478;49.208;8.806;2022-12-29T09:38:19;11.50;99.90
2050;DHT22;8478;49.208;8.806;2022-12-29T09:40:50;11.50;99.90
2050;DHT22;8478;49.208;8.806;2022-12-29T09:43:46;11.50;99.90
2050;DHT22;8478;49.208;8.806;2022-12-29T09:46:37;11.50;99.90
2050;DHT22;8478;49.208;8.806;2022-12-29T09:51:50;11.50;99.90
2050;DHT22;8478;49.208;8.806;2022-12-29T09:56:42;11.50;99.90
2050;DHT22;8478;49.208;8.806;2022-12-29T09:59:15;11.50;99.90
2050;DHT22;8478;49.208;8.806;2022-12-29T10:01:56;11.50;99.90
2050;DHT22;8478;49.208;8.806;2022-12-29T10:04:26;11.50;99.90
2050;DHT22;8478;49.208;8.806;2022-12-29T10:07:45;11.50;99.90
2050;DHT22;8478;49.208;8.806;2022-12-29T10:10:25;11.50;99.90
2050;DHT22;8478;49.208;8.806;2022-12-29T10:13:20;11.50;99.90
2050;DHT22;8478;49.208;8.806;2022-12-29T10:16:02;11.50;99.90
2050;DHT22;8478;49.208;8.806;2022-12-29T10:18:58;11.50;99.90
2050;DHT22;8478;49.208;8.806;2022-12-29T10:21:58;11.50;99.90
2050;DHT22;8478;49.208;8.806;2022-12-29T10:24:29;11.50;99.90
2050;DHT22;8478;49.208;8.806;2022-12-29T10:26:56;11.50;99.90
2050;DHT22;8478;49.208;8.806;2022-12-29T10:29:28;11.50;99.90
2050;DHT22;8478;49.208;8.806;2022-12-29T10:32:02;11.50;99.90
2050;DHT22;8478;49.208;8.806;2022-12-29T10:34:38;11.50;99.90
2050;DHT22;8478;49.208;8.806;2022-12-29T10:39:49;11.60;99.90
2050;DHT22;8478;49.208;8.806;2022-12-29T10:43:11;11.60;99.90
2050;DHT22;8478;49.208;8.806;2022-12-29T10:45:14;11.60;99.90
2050;DHT22;8478;49.208;8.806;2022-12-29T10:47:54;11.60;99.90
2050;DHT22;8478;49.208;8.806;2022-12-29T10:50:22;11.60;99.90
2050;DHT22;8478;49.208;8.806;2022-12-29T10:52:49;11.50;99.90
2050;DHT22;8478;49.208;8.806;2022-12-29T10:55:35;11.50;99.90
2050;DHT22;8478;49.208;8.806;2022-12-29T10:58:06;11.60;99.90
2050;DHT22;8478;49.208;8.806;2022-12-29T11:00:32;11.60;99.90
2050;DHT22;8478;49.208;8.806;2022-12-29T11:03:17;11.60;99.90
2050;DHT22;8478;49.208;8.806;2022-12-29T11:05:56;11.60;99.90
2050;DHT22;8478;49.208;8.806;2022-12-29T11:08:31;11.60;99.90
2050;DHT22;8478;49.208;8.806;2022-12-29T11:11:04;11.60;99.90
2050;DHT22;8478;49.208;8.806;2022-12-29T11:13:33;11.60;99.90
2050;DHT22;8478;49.208;8.806;2022-12-29T11:15:59;11.60;99.90
2050;DHT22;8478;49.208;8.806;2022-12-29T11:18:26;11.60;99.90
2050;DHT22;8478;49.208;8.806;2022-12-29T11:20:58;11.60;99.90
2050;DHT22;8478;49.208;8.806;2022-12-29T11:23:37;11.60;99.90
2050;DHT22;8478;49.208;8.806;2022-12-29T11:26:20;11.60;99.90
2050;DHT22;8478;49.208;8.806;2022-12-29T11:31:42;11.60;99.90
2050;DHT22;8478;49.208;8.806;2022-12-29T11:34:08;11.60;99.90
2050;DHT22;8478;49.208;8.806;2022-12-29T11:36:34;11.60;99.90
2050;DHT22;8478;49.208;8.806;2022-12-29T11:39:01;11.60;99.90
2050;DHT22;8478;49.208;8.806;2022-12-29T11:41:31;11.60;99.90
2050;DHT22;8478;49.208;8.806;2022-12-29T11:44:00;11.60;99.90
2050;DHT22;8478;49.208;8.806;2022-12-29T11:46:28;11.70;99.90
2050;DHT22;8478;49.208;8.806;2022-12-29T11:48:56;11.60;99.90
2050;DHT22;8478;49.208;8.806;2022-12-29T11:51:45;11.60;99.90
2050;DHT22;8478;49.208;8.806;2022-12-29T11:54:23;11.60;99.90
2050;DHT22;8478;49.208;8.806;2022-12-29T11:56:51;11.60;99.90
2050;DHT22;8478;49.208;8.806;2022-12-29T11:59:34;11.70;99.90
2050;DHT22;8478;49.208;8.806;2022-12-29T12:02:35;11.70;99.90
2050;DHT22;8478;49.208;8.806;2022-12-29T12:07:37;11.70;99.90
2050;DHT22;8478;49.208;8.806;2022-12-29T12:10:05;11.70;99.90
2050;DHT22;8478;49.208;8.806;2022-12-29T12:12:39;11.70;99.90
2050;DHT22;8478;49.208;8.806;2022-12-29T12:15:16;11.70;99.90
2050;DHT22;8478;49.208;8.806;2022-12-29T12:17:57;11.70;99.90
2050;DHT22;8478;49.208;8.806;2022-12-29T12:20:45;11.70;99.90
2050;DHT22;8478;49.208;8.806;2022-12-29T12:26:20;11.70;99.90
2050;DHT22;8478;49.208;8.806;2022-12-29T12:28:58;11.70;99.90
2050;DHT22;8478;49.208;8.806;2022-12-29T12:34:06;11.70;99.90
2050;DHT22;8478;49.208;8.806;2022-12-29T12:36:49;11.70;99.90
2050;DHT22;8478;49.208;8.806;2022-12-29T12:39:42;11.70;99.90
2050;DHT22;8478;49.208;8.806;2022-12-29T12:47:56;11.70;99.90
2050;DHT22;8478;49.208;8.806;2022-12-29T13:02:23;11.70;99.90
2050;DHT22;8478;49.208;8.806;2022-12-29T13:10:12;11.70;99.90
2050;DHT22;8478;49.208;8.806;2022-12-29T13:13:12;11.70;99.90
2050;DHT22;8478;49.208;8.806;2022-12-29T13:18:24;11.70;99.90
2050;DHT22;8478;49.208;8.806;2022-12-29T13:21:29;11.70;99.90
2050;DHT22;8478;49.208;8.806;2022-12-29T13:24:15;11.70;99.90
2050;DHT22;8478;49.208;8.806;2022-12-29T13:26:50;11.70;99.90
2050;DHT22;8478;49.208;8.806;2022-12-29T13:37:52;11.70;99.90
2050;DHT22;8478;49.208;8.806;2022-12-29T13:40:23;11.80;99.90
2050;DHT22;8478;49.208;8.806;2022-12-29T13:42:50;11.70;99.90
2050;DHT22;8478;49.208;8.806;2022-12-29T13:45:22;11.80;99.90
2050;DHT22;8478;49.208;8.806;2022-12-29T13:50:24;11.70;99.90
2050;DHT22;8478;49.208;8.806;2022-12-29T13:56:06;11.70;99.90
2050;DHT22;8478;49.208;8.806;2022-12-29T13:59:17;11.80;99.90
2050;DHT22;8478;49.208;8.806;2022-12-29T14:02:01;11.70;99.90
2050;DHT22;8478;49.208;8.806;2022-12-29T14:04:30;11.70;99.90
2050;DHT22;8478;49.208;8.806;2022-12-29T14:07:15;11.80;99.90
2050;DHT22;8478;49.208;8.806;2022-12-29T14:09:51;11.80;99.90
2050;DHT22;8478;49.208;8.806;2022-12-29T14:12:42;11.80;99.90
2050;DHT22;8478;49.208;8.806;2022-12-29T14:17:39;11.80;99.90
2050;DHT22;8478;49.208;8.806;2022-12-29T14:20:15;11.80;99.90
2050;DHT22;8478;49.208;8.806;2022-12-29T14:22:56;11.80;99.90
2050;DHT22;8478;49.208;8.806;2022-12-29T14:28:25;11.80;99.90
2050;DHT22;8478;49.208;8.806;2022-12-29T14:30:53;11.70;99.90
2050;DHT22;8478;49.208;8.806;2022-12-29T14:33:21;11.80;99.90
2050;DHT22;8478;49.208;8.806;2022-12-29T14:35:48;11.70;99.90
2050;DHT22;8478;49.208;8.806;2022-12-29T14:38:28;11.80;99.90
2050;DHT22;8478;49.208;8.806;2022-12-29T14:43:57;11.80;99.90
2050;DHT22;8478;49.208;8.806;2022-12-29T14:46:24;11.80;99.90
2050;DHT22;8478;49.208;8.806;2022-12-29T14:48:55;11.80;99.90
2050;DHT22;8478;49.208;8.806;2022-12-29T14:51:30;11.80;99.90
2050;DHT22;8478;49.208;8.806;2022-12-29T14:53:56;11.80;99.90
2050;DHT22;8478;49.208;8.806;2022-12-29T14:56:28;11.80;99.90
2050;DHT22;8478;49.208;8.806;2022-12-29T14:58:57;11.80;99.90
2050;DHT22;8478;49.208;8.806;2022-12-29T15:01:39;11.80;99.90
2050;DHT22;8478;49.208;8.806;2022-12-29T15:04:18;11.80;99.90
2050;DHT22;8478;49.208;8.806;2022-12-29T15:06:45;11.80;99.90
2050;DHT22;8478;49.208;8.806;2022-12-29T15:12:01;11.80;99.90
2050;DHT22;8478;49.208;8.806;2022-12-29T15:14:51;11.80;99.90
2050;DHT22;8478;49.208;8.806;2022-12-29T15:17:33;11.80;99.90
2050;DHT22;8478;49.208;8.806;2022-12-29T15:20:30;11.80;99.90
2050;DHT22;8478;49.208;8.806;2022-12-29T15:23:02;11.80;99.90
2050;DHT22;8478;49.208;8.806;2022-12-29T15:25:28;11.80;99.90
2050;DHT22;8478;49.208;8.806;2022-12-29T15:28:04;11.80;99.90
2050;DHT22;8478;49.208;8.806;2022-12-29T15:30:30;11.90;99.90
2050;DHT22;8478;49.208;8.806;2022-12-29T15:32:56;11.90;99.90
2050;DHT22;8478;49.208;8.806;2022-12-29T15:35:33;11.80;99.90
2050;DHT22;8478;49.208;8.806;2022-12-29T15:38:00;11.80;99.90
2050;DHT22;8478;49.208;8.806;2022-12-29T15:40:32;11.80;99.90
2050;DHT22;8478;49.208;8.806;2022-12-29T15:45:42;11.90;99.90
2050;DHT22;8478;49.208;8.806;2022-12-29T15:48:16;11.90;99.90
2050;DHT22;8478;49.208;8.806;2022-12-29T15:50:44;11.80;99.90
2050;DHT22;8478;49.208;8.806;2022-12-29T15:53:14;11.80;99.90
2050;DHT22;8478;49.208;8.806;2022-12-29T15:55:43;11.80;99.90
2050;DHT22;8478;49.208;8.806;2022-12-29T15:58:27;11.80;99.90
2050;DHT22;8478;49.208;8.806;2022-12-29T16:00:55;11.90;99.90
2050;DHT22;8478;49.208;8.806;2022-12-29T16:03:24;11.80;99.90
2050;DHT22;8478;49.208;8.806;2022-12-29T16:05:57;11.90;99.90
2050;DHT22;8478;49.208;8.806;2022-12-29T16:08:36;11.90;99.90
2050;DHT22;8478;49.208;8.806;2022-12-29T16:11:28;11.80;99.90
2050;DHT22;8478;49.208;8.806;2022-12-29T16:13:56;11.80;99.90
2050;DHT22;8478;49.208;8.806;2022-12-29T16:16:35;11.80;99.90
2050;DHT22;8478;49.208;8.806;2022-12-29T16:19:05;11.80;99.90
2050;DHT22;8478;49.208;8.806;2022-12-29T16:21:35;11.80;99.90
2050;DHT22;8478;49.208;8.806;2022-12-29T16:24:07;11.90;99.90
2050;DHT22;8478;49.208;8.806;2022-12-29T16:26:36;11.90;99.90
2050;DHT22;8478;49.208;8.806;2022-12-29T16:29:05;11.90;99.90
2050;DHT22;8478;49.208;8.806;2022-12-29T16:31:36;11.80;99.90
2050;DHT22;8478;49.208;8.806;2022-12-29T16:34:19;11.80;99.90
2050;DHT22;8478;49.208;8.806;2022-12-29T16:36:55;11.80;99.90
2050;DHT22;8478;49.208;8.806;2022-12-29T16:39:36;11.90;99.90
2050;DHT22;8478;49.208;8.806;2022-12-29T16:47:48;11.90;99.90
2050;DHT22;8478;49.208;8.806;2022-12-29T16:50:27;11.80;99.90
2050;DHT22;8478;49.208;8.806;2022-12-29T16:52:53;11.90;99.90
2050;DHT22;8478;49.208;8.806;2022-12-29T16:55:19;11.90;99.90
2050;DHT22;8478;49.208;8.806;2022-12-29T16:57:47;11.90;99.90
2050;DHT22;8478;49.208;8.806;2022-12-29T17:00:20;11.80;99.90
2050;DHT22;8478;49.208;8.806;2022-12-29T17:02:46;11.90;99.90
2050;DHT22;8478;49.208;8.806;2022-12-29T17:05:17;11.90;99.90
2050;DHT22;8478;49.208;8.806;2022-12-29T17:07:43;11.80;99.90
2050;DHT22;8478;49.208;8.806;2022-12-29T17:10:10;11.80;99.90
2050;DHT22;8478;49.208;8.806;2022-12-29T17:12:36;11.90;99.90
2050;DHT22;8478;49.208;8.806;2022-12-29T17:15:07;11.90;99.90
2050;DHT22;8478;49.208;8.806;2022-12-29T17:17:45;11.90;99.90
2050;DHT22;8478;49.208;8.806;2022-12-29T17:20:23;11.80;99.90
2050;DHT22;8478;49.208;8.806;2022-12-29T17:22:50;11.80;99.90
2050;DHT22;8478;49.208;8.806;2022-12-29T17:25:21;11.90;99.90
2050;DHT22;8478;49.208;8.806;2022-12-29T17:28:01;11.90;99.90
2050;DHT22;8478;49.208;8.806;2022-12-29T17:30:29;11.90;99.90
2050;DHT22;8478;49.208;8.806;2022-12-29T17:33:09;11.80;99.90
2050;DHT22;8478;49.208;8.806;2022-12-29T17:35:35;11.90;99.90
2050;DHT22;8478;49.208;8.806;2022-12-29T17:38:01;11.90;99.90
2050;DHT22;8478;49.208;8.806;2022-12-29T17:40:29;11.80;99.90
2050;DHT22;8478;49.208;8.806;2022-12-29T17:42:57;11.80;99.90
2050;DHT22;8478;49.208;8.806;2022-12-29T17:45:26;11.90;99.90
2050;DHT22;8478;49.208;8.806;2022-12-29T17:47:52;11.90;99.90
2050;DHT22;8478;49.208;8.806;2022-12-29T17:50:20;11.90;99.90
2050;DHT22;8478;49.208;8.806;2022-12-29T17:52:57;11.90;99.90
2050;DHT22;8478;49.208;8.806;2022-12-29T17:55:23;11.90;99.90
2050;DHT22;8478;49.208;8.806;2022-12-29T17:57:50;11.90;99.90
2050;DHT22;8478;49.208;8.806;2022-12-29T18:00:16;11.90;99.90
2050;DHT22;8478;49.208;8.806;2022-12-29T18:02:43;11.90;99.90
2050;DHT22;8478;49.208;8.806;2022-12-29T18:05:18;11.90;99.90
2050;DHT22;8478;49.208;8.806;2022-12-29T18:07:44;11.90;99.90
2050;DHT22;8478;49.208;8.806;2022-12-29T18:10:10;11.90;99.90
2050;DHT22;8478;49.208;8.806;2022-12-29T18:12:41;11.90;99.90
2050;DHT22;8478;49.208;8.806;2022-12-29T18:17:42;11.90;99.90
2050;DHT22;8478;49.208;8.806;2022-12-29T18:20:08;11.90;99.90
2050;DHT22;8478;49.208;8.806;2022-12-29T18:22:33;11.90;99.90
2050;DHT22;8478;49.208;8.806;2022-12-29T18:24:59;11.90;99.90
2050;DHT22;8478;49.208;8.806;2022-12-29T18:27:26;11.90;99.90